メインページ
METAR-TAF:

METAR-TAF

空港 :

Borden, オンタリオ州, カナダ

緯度: 44-15N, 経度: 079-55W, 海抜: 223m

現時点の気象観測

当レポートは27分前の19:00(UTC)に作成
西の風 4kt、南西から北西の間で変化する
気温 28°C
湿度 66%
気圧 1008 hPa
視程: 14.5km
晴天

METAR: CYBN 191900Z AUTO 27004KT 230V320 9SM CLR 28/21 A2978 RMK SLP082

時間: 15:27 (19:27 UTC)

予報

当レポートは1時間57分前の17:30(UTC)に作成
予報は19日の 18時(UTC)から 20日の 06時(UTC)まで有効
南西の風 10kt
視程: 10km
高度2000ftの雲は散在している
高度4000ftの雲は散在している
高度10000ftの千切れ雲あり
19日の 18時(UTC)から 19日の 24時(UTC)まで一時的に
視程: 8.0km
高度2000ftの千切れ雲あり
高度4000ftの曇り
弱いにわか雨, 靄
確率 30%
19日の 18時(UTC)から 19日の 24時(UTC)まで
視程: 1.6km
高度2000ftの千切れ雲あり
高度4000ftの曇り, 積乱雲.
激しい雷雨, 雨, 靄
20日の 0000時(UTC)から
西/南西の風 8kt
視程: 10km
高度2000ftの雲は散在している
高度4000ftの千切れ雲あり
20日の 02時(UTC)から 20日の 04時(UTC)まで徐々に
南西の風 5kt
高度2000ftの雲はほとんどない

TAF: CYBN 191730Z 1918/2006 23010KT P6SM SCT020 SCT040 BKN100 TEMPO 1918/1924 5SM -SHRA BR BKN020 OVC040 PROB30 1918/1924 1SM TSRA BR BKN020 OVC040CB FM200000 24008KT P6SM SCT020 BKN040 BECMG 2002/2004 22005KT FEW020 RMK FCST BASED ON AUTO OBS. NXT FCST BY 200000Z

4,000以上の空港の気象観測と天気予報(METAR報とTAF報)

利用可能な観測所は地図上に黄色い丸と赤い丸で示す。

丸の上にカーソルを重ねると観測所名を参照できる。

次にクリックすると気象観測と天気予報を参照できる。

マップの切り替え:黒色「×」印の緑ボタンをクリックして拡大、「-」印の緑ボタンをクリックして縮小、緑色の三角印をクリックして隣りの地図に切り替え


METAR-TAF: